createdAt,value
2018-08-22T00:00:53.713Z,6.12
2018-08-22T00:03:29.447Z,3.10
2018-08-22T00:06:04.858Z,3.70
2018-08-22T00:08:43.694Z,3.55
2018-08-22T00:11:18.996Z,3.00
2018-08-22T00:13:54.430Z,2.42
2018-08-22T00:16:29.798Z,2.65
2018-08-22T00:19:05.778Z,3.33
2018-08-22T00:21:41.109Z,2.27
2018-08-22T00:24:16.907Z,2.58
2018-08-22T00:26:52.395Z,2.08
2018-08-22T00:29:27.988Z,2.60
2018-08-22T00:32:03.438Z,2.17
2018-08-22T00:34:39.085Z,2.40
2018-08-22T00:37:14.241Z,2.02
2018-08-22T00:39:49.778Z,2.55
2018-08-22T00:42:25.197Z,2.40
2018-08-22T00:45:01.173Z,2.98
2018-08-22T00:47:36.593Z,2.02
2018-08-22T00:50:12.380Z,2.10
2018-08-22T00:52:48.104Z,2.30
2018-08-22T00:55:23.672Z,2.70
2018-08-22T00:57:59.108Z,1.92
2018-08-22T01:00:34.568Z,2.25
2018-08-22T01:03:10.201Z,2.20
2018-08-22T01:05:45.818Z,2.33
2018-08-22T01:08:21.177Z,2.72
2018-08-22T01:11:03.348Z,5.67
2018-08-22T01:13:38.898Z,2.40
2018-08-22T01:16:14.504Z,2.40
2018-08-22T01:18:49.899Z,2.60
2018-08-22T01:21:25.495Z,2.20
2018-08-22T01:24:01.128Z,2.08
2018-08-22T01:26:36.689Z,3.40
2018-08-22T01:29:12.172Z,3.40
2018-08-22T01:31:47.694Z,2.25
2018-08-22T01:34:22.849Z,2.27
2018-08-22T01:36:58.283Z,2.30
2018-08-22T01:39:34.482Z,3.40
2018-08-22T01:42:10.191Z,2.15
2018-08-22T01:44:46.535Z,2.75
2018-08-22T01:47:22.198Z,2.37
2018-08-22T01:49:57.696Z,2.30
2018-08-22T01:52:33.197Z,2.17
2018-08-22T01:55:08.457Z,2.60
2018-08-22T01:57:44.080Z,2.12
2018-08-22T02:00:19.589Z,2.95
2018-08-22T02:02:55.587Z,2.27
2018-08-22T02:05:30.858Z,2.15
2018-08-22T02:08:06.576Z,2.37
2018-08-22T02:10:41.947Z,2.20
2018-08-22T02:13:17.474Z,2.90
2018-08-22T02:15:52.921Z,2.40
2018-08-22T02:18:29.084Z,2.20
2018-08-22T02:21:04.424Z,2.50
2018-08-22T02:23:40.072Z,2.40
2018-08-22T02:26:15.605Z,2.17
2018-08-22T02:28:51.265Z,2.50
2018-08-22T02:31:26.798Z,2.80
2018-08-22T02:34:02.366Z,2.42
2018-08-22T02:36:37.881Z,2.02
2018-08-22T02:39:13.565Z,3.37
2018-08-22T02:41:48.852Z,2.10
2018-08-22T02:44:24.552Z,1.98
2018-08-22T02:47:00.061Z,2.20
2018-08-22T02:49:35.621Z,2.33
2018-08-22T02:52:11.062Z,2.30
2018-08-22T02:54:46.539Z,2.10
2018-08-22T02:57:21.992Z,2.12
2018-08-22T02:59:57.528Z,2.30
2018-08-22T03:02:33.016Z,2.30
2018-08-22T03:05:08.732Z,1.92
2018-08-22T03:07:44.077Z,1.90
2018-08-22T03:10:19.824Z,2.50
2018-08-22T03:12:55.160Z,2.40
2018-08-22T03:15:30.659Z,2.05
2018-08-22T03:18:06.117Z,2.30
2018-08-22T03:20:41.608Z,2.50
2018-08-22T03:23:17.022Z,2.30
2018-08-22T03:25:52.630Z,2.30
2018-08-22T03:28:28.101Z,2.22
2018-08-22T03:31:03.509Z,2.60
2018-08-22T03:33:38.673Z,2.47
2018-08-22T03:36:14.296Z,2.42
2018-08-22T03:38:49.741Z,2.20
2018-08-22T03:41:25.376Z,2.10
2018-08-22T03:44:00.881Z,2.50
2018-08-22T03:46:36.468Z,2.58
2018-08-22T03:49:11.756Z,2.20
2018-08-22T03:51:47.353Z,2.20
2018-08-22T03:54:22.769Z,2.10
2018-08-22T03:56:58.456Z,2.37
2018-08-22T03:59:33.865Z,2.37
2018-08-22T04:02:09.341Z,2.72
2018-08-22T04:04:44.980Z,2.58
2018-08-22T04:07:20.541Z,2.37
2018-08-22T04:09:55.737Z,2.52
2018-08-22T04:12:31.432Z,3.15
2018-08-22T04:15:06.944Z,2.52
2018-08-22T04:17:42.339Z,2.30
2018-08-22T04:20:17.621Z,2.52
2018-08-22T04:22:53.149Z,2.45
2018-08-22T04:25:28.537Z,2.35
2018-08-22T04:28:04.200Z,2.33
2018-08-22T04:30:39.592Z,2.20
2018-08-22T04:33:15.204Z,2.25
2018-08-22T04:35:50.520Z,2.75
2018-08-22T04:38:25.989Z,2.50
2018-08-22T04:41:02.675Z,2.10
2018-08-22T04:43:38.212Z,2.77
2018-08-22T04:46:13.565Z,2.40
2018-08-22T04:48:49.011Z,2.37
2018-08-22T04:51:24.301Z,2.40
2018-08-22T04:54:00.197Z,2.50
2018-08-22T04:56:35.565Z,2.47
2018-08-22T04:59:11.488Z,2.40
2018-08-22T05:01:46.891Z,2.40
2018-08-22T05:04:22.485Z,2.10
2018-08-22T05:06:57.644Z,2.70
2018-08-22T05:09:33.073Z,2.92
2018-08-22T05:12:08.420Z,3.10
2018-08-22T05:14:44.064Z,2.85
2018-08-22T05:17:19.441Z,2.50
2018-08-22T05:19:55.056Z,3.00
2018-08-22T05:22:30.209Z,2.70
2018-08-22T05:25:05.822Z,2.90
2018-08-22T05:27:41.013Z,2.85
2018-08-22T05:30:16.797Z,2.95
2018-08-22T05:32:52.149Z,3.80
2018-08-22T05:35:27.832Z,2.70
2018-08-22T05:38:03.150Z,3.47
2018-08-22T05:40:38.989Z,2.57
2018-08-22T05:43:14.452Z,2.90
2018-08-22T05:45:49.916Z,3.10
2018-08-22T05:48:25.137Z,3.10
2018-08-22T05:51:00.805Z,3.53
2018-08-22T05:53:36.084Z,3.47
2018-08-22T05:56:11.693Z,2.80
2018-08-22T05:58:47.029Z,2.90
2018-08-22T06:01:22.688Z,3.10
2018-08-22T06:03:58.273Z,3.13
2018-08-22T06:06:34.006Z,3.00
2018-08-22T06:09:11.884Z,3.10
2018-08-22T06:11:47.334Z,2.90
2018-08-22T06:14:22.535Z,3.10
2018-08-22T06:16:57.936Z,2.90
2018-08-22T06:19:33.450Z,3.30
2018-08-22T06:22:09.121Z,3.53
2018-08-22T06:24:44.703Z,4.60
2018-08-22T06:27:20.517Z,3.57
2018-08-22T06:29:55.708Z,3.17
2018-08-22T06:32:31.211Z,3.70
2018-08-22T06:35:07.051Z,2.57
2018-08-22T06:37:42.720Z,3.20
2018-08-22T06:40:18.057Z,3.00
2018-08-22T06:42:53.715Z,2.87
2018-08-22T06:45:29.005Z,3.80
2018-08-22T06:48:04.595Z,2.70
2018-08-22T06:50:40.332Z,3.10
2018-08-22T06:53:16.309Z,3.00
2018-08-22T07:55:28.973Z,2.70
2018-08-22T07:58:04.552Z,3.33
2018-08-22T08:00:40.245Z,2.60
2018-08-22T08:03:16.004Z,3.80
2018-08-22T08:05:51.524Z,2.87
2018-08-22T08:08:26.808Z,3.57
2018-08-22T08:44:34.409Z,2.73
2018-08-22T13:37:08.901Z,2.30
2018-08-22T13:47:29.001Z,3.05
2018-08-22T15:48:49.440Z,4.20
2018-08-22T15:51:25.497Z,9.40
2018-08-22T18:40:31.617Z,6.27
2018-08-22T18:43:08.188Z,7.23
2018-08-22T18:45:59.839Z,8.70
2018-08-22T18:48:36.009Z,10.50
2018-08-22T18:51:11.623Z,8.27
2018-08-22T18:53:46.981Z,9.90
2018-08-22T18:56:23.117Z,9.80
2018-08-22T18:58:58.590Z,8.23
2018-08-22T19:01:34.252Z,8.70
2018-08-22T19:04:10.067Z,8.57
2018-08-22T19:06:45.689Z,8.00
2018-08-22T19:09:21.111Z,7.63
2018-08-22T19:11:56.720Z,7.30
2018-08-22T19:14:44.541Z,7.00
2018-08-22T19:17:20.231Z,7.37
2018-08-22T19:19:55.643Z,7.75
2018-08-22T19:22:31.204Z,7.10
2018-08-22T19:25:07.486Z,6.83
2018-08-22T19:27:42.795Z,7.53
2018-08-22T19:30:18.281Z,6.53
2018-08-22T19:32:54.014Z,6.60
2018-08-22T19:35:29.444Z,7.90
2018-08-22T19:38:06.124Z,7.40
2018-08-22T19:40:41.477Z,8.23
2018-08-22T19:43:16.916Z,9.20
2018-08-22T19:45:52.441Z,8.73
2018-08-22T19:48:27.909Z,9.10
2018-08-22T19:51:03.378Z,8.40
2018-08-22T19:54:06.246Z,8.47
2018-08-22T19:56:41.670Z,7.73
2018-08-22T19:59:17.127Z,7.87
2018-08-22T20:01:52.664Z,7.40
2018-08-22T20:04:28.376Z,8.50
2018-08-22T20:07:03.589Z,6.90
2018-08-22T20:09:42.905Z,7.07
2018-08-22T20:12:18.352Z,7.63
2018-08-22T20:14:53.865Z,6.83
2018-08-22T20:17:30.142Z,6.90
2018-08-22T20:20:06.326Z,7.37
2018-08-22T20:22:43.826Z,9.27
2018-08-22T20:25:19.470Z,9.30
2018-08-22T20:27:54.796Z,8.60
2018-08-22T20:30:30.418Z,9.20
2018-08-22T20:33:09.628Z,9.70
2018-08-22T20:35:45.145Z,8.17
2018-08-22T20:38:21.636Z,8.83
2018-08-22T20:41:01.150Z,7.70
2018-08-22T20:43:36.645Z,8.00
2018-08-22T20:46:13.724Z,7.57
2018-08-22T20:48:51.515Z,8.00
2018-08-22T20:51:27.133Z,7.80
2018-08-22T20:54:08.084Z,6.63
2018-08-22T20:56:49.305Z,6.73
2018-08-22T20:59:24.632Z,5.67
2018-08-22T21:02:03.604Z,5.27
2018-08-22T21:04:39.136Z,5.23
2018-08-22T21:07:15.261Z,5.30
2018-08-22T21:09:50.464Z,6.60
2018-08-22T21:12:25.950Z,6.50
2018-08-22T21:15:01.394Z,6.50
2018-08-22T21:17:36.951Z,7.50
2018-08-22T21:20:18.101Z,5.93
2018-08-22T21:22:54.939Z,6.70
2018-08-22T21:25:30.289Z,8.10
2018-08-22T21:28:05.884Z,7.30
2018-08-22T21:30:45.444Z,7.60
2018-08-22T21:33:20.990Z,7.20
2018-08-22T21:35:56.335Z,7.50
2018-08-22T21:38:32.185Z,6.57
2018-08-22T21:41:07.537Z,6.73
2018-08-22T21:43:43.273Z,9.13
2018-08-22T21:46:18.540Z,8.63
2018-08-22T21:48:54.166Z,6.60
2018-08-22T21:51:29.453Z,6.93
2018-08-22T21:54:04.962Z,10.77
2018-08-22T21:56:40.779Z,7.00
2018-08-22T21:59:16.360Z,4.27
2018-08-22T22:01:57.077Z,4.33
2018-08-22T22:04:35.635Z,9.83
2018-08-22T22:07:12.194Z,6.03
2018-08-22T22:09:47.860Z,6.37
2018-08-22T22:12:28.397Z,8.53
2018-08-22T22:15:04.413Z,10.10
2018-08-22T22:17:40.138Z,9.93
2018-08-22T22:20:15.847Z,12.70
2018-08-22T22:22:51.455Z,9.50
2018-08-22T22:25:26.972Z,11.30
2018-08-22T22:28:02.587Z,9.17
2018-08-22T22:30:38.091Z,8.63
2018-08-22T22:33:13.621Z,14.43
2018-08-22T22:35:49.156Z,11.00
2018-08-22T22:38:24.730Z,15.40
2018-08-22T22:41:00.072Z,14.10
2018-08-22T22:43:36.160Z,16.20
2018-08-22T22:46:11.595Z,10.17
2018-08-22T22:48:47.330Z,7.07
2018-08-22T22:51:22.591Z,6.50
2018-08-22T22:53:58.213Z,8.43
2018-08-22T22:56:33.506Z,10.73
2018-08-22T22:59:09.514Z,17.40
2018-08-22T23:01:45.053Z,8.47
2018-08-22T23:04:20.639Z,6.93
2018-08-22T23:07:11.693Z,9.53
2018-08-22T23:09:53.379Z,13.07
2018-08-22T23:12:31.618Z,8.80
2018-08-22T23:15:10.522Z,8.70
2018-08-22T23:17:47.742Z,8.90
2018-08-22T23:20:47.024Z,8.83
2018-08-22T23:23:37.143Z,8.80
2018-08-22T23:26:17.857Z,8.37
2018-08-22T23:28:53.348Z,12.80
2018-08-22T23:31:28.617Z,7.70
2018-08-22T23:34:04.237Z,9.60
2018-08-22T23:36:39.517Z,14.90
2018-08-22T23:39:15.533Z,10.90
2018-08-22T23:41:50.937Z,14.00
2018-08-22T23:44:26.646Z,11.93
2018-08-22T23:47:02.108Z,14.10
2018-08-22T23:49:42.027Z,10.63
2018-08-22T23:52:17.357Z,15.70
2018-08-22T23:54:53.017Z,11.60
2018-08-22T23:57:28.334Z,8.47
